createdAt,value
2019-03-21T00:00:07.054Z,7.20
2019-03-21T00:01:07.084Z,7.09
2019-03-21T00:02:07.007Z,7.05
2019-03-21T00:03:06.984Z,7.05
2019-03-21T00:04:06.936Z,7.07
2019-03-21T00:05:06.915Z,7.04
2019-03-21T00:06:06.873Z,7.08
2019-03-21T00:07:06.914Z,7.07
2019-03-21T00:08:06.822Z,7.08
2019-03-21T00:09:06.823Z,6.97
2019-03-21T00:10:06.773Z,6.97
2019-03-21T00:11:06.743Z,7.01
2019-03-21T00:12:06.735Z,6.84
2019-03-21T00:13:06.673Z,6.91
2019-03-21T00:14:07.423Z,6.86
2019-03-21T00:15:06.632Z,6.83
2019-03-21T00:16:06.592Z,6.98
2019-03-21T00:17:06.573Z,6.91
2019-03-21T00:18:06.573Z,6.97
2019-03-21T00:19:06.514Z,6.95
2019-03-21T00:20:06.583Z,6.89
2019-03-21T00:21:06.452Z,6.79
2019-03-21T00:22:06.423Z,6.86
2019-03-21T00:23:06.504Z,6.84
2019-03-21T00:24:06.376Z,6.90
2019-03-21T00:25:06.416Z,6.80
2019-03-21T00:26:06.313Z,6.86
2019-03-21T00:27:06.282Z,6.76
2019-03-21T00:28:06.265Z,6.76
2019-03-21T00:29:06.339Z,6.72
2019-03-21T00:30:06.195Z,6.71
2019-03-21T00:31:06.244Z,6.69
2019-03-21T00:32:06.133Z,6.63
2019-03-21T00:33:06.120Z,6.65
2019-03-21T00:34:06.167Z,6.68
2019-03-21T00:35:06.052Z,6.80
2019-03-21T00:36:06.078Z,6.72
2019-03-21T00:37:06.006Z,6.73
2019-03-21T00:38:05.997Z,6.73
2019-03-21T00:39:05.942Z,6.77
2019-03-21T00:40:05.992Z,6.71
2019-03-21T00:41:05.933Z,6.76
2019-03-21T00:42:05.904Z,6.69
2019-03-21T00:43:05.821Z,6.80
2019-03-21T00:44:05.803Z,6.76
2019-03-21T00:45:05.768Z,6.68
2019-03-21T00:46:05.823Z,6.68
2019-03-21T00:47:05.712Z,6.65
2019-03-21T00:48:05.746Z,6.71
2019-03-21T00:49:05.655Z,6.66
2019-03-21T00:50:05.622Z,6.62
2019-03-21T00:51:05.655Z,6.62
2019-03-21T00:52:05.572Z,6.61
2019-03-21T00:53:05.563Z,6.56
2019-03-21T00:54:05.503Z,6.56
2019-03-21T00:55:05.484Z,6.63
2019-03-21T00:56:05.453Z,6.61
2019-03-21T00:57:05.482Z,6.54
2019-03-21T00:58:05.403Z,6.54
2019-03-21T00:59:05.391Z,6.58
2019-03-21T01:00:05.343Z,6.63
2019-03-21T01:01:05.316Z,6.48
2019-03-21T01:02:05.317Z,6.63
2019-03-21T01:03:05.255Z,6.53
2019-03-21T01:04:05.322Z,6.53
2019-03-21T01:05:05.192Z,6.38
2019-03-21T01:06:05.163Z,6.40
2019-03-21T01:07:05.133Z,6.40
2019-03-21T01:08:05.141Z,6.44
2019-03-21T01:09:05.076Z,6.44
2019-03-21T01:10:05.151Z,6.62
2019-03-21T01:11:05.032Z,6.58
2019-03-21T01:12:04.992Z,6.68
2019-03-21T01:13:04.968Z,6.63
2019-03-21T01:14:04.974Z,6.58
2019-03-21T01:15:04.901Z,6.63
2019-03-21T01:16:04.990Z,6.50
2019-03-21T01:17:04.851Z,6.53
2019-03-21T01:18:04.903Z,6.62
2019-03-21T01:19:04.791Z,6.58
2019-03-21T01:20:04.812Z,6.56
2019-03-21T01:21:04.734Z,6.51
2019-03-21T01:22:04.826Z,6.44
2019-03-21T01:23:04.725Z,6.44
2019-03-21T01:24:04.651Z,6.54
2019-03-21T01:25:04.637Z,6.54
2019-03-21T01:26:04.595Z,6.69
2019-03-21T01:27:04.653Z,6.76
2019-03-21T01:28:04.542Z,6.77
2019-03-21T01:29:04.562Z,6.86
2019-03-21T01:30:04.473Z,6.86
2019-03-21T01:31:04.473Z,6.80
2019-03-21T01:32:04.422Z,6.77
2019-03-21T01:33:04.482Z,6.71
2019-03-21T01:34:04.385Z,6.68
2019-03-21T01:35:04.331Z,6.59
2019-03-21T01:36:04.431Z,6.58
2019-03-21T01:37:04.272Z,6.66
2019-03-21T01:38:04.313Z,6.79
2019-03-21T01:39:04.212Z,6.76
2019-03-21T01:40:04.182Z,6.84
2019-03-21T01:41:04.232Z,6.99
2019-03-21T01:42:04.123Z,7.02
2019-03-21T01:43:04.131Z,6.97
2019-03-21T01:44:04.080Z,6.86
2019-03-21T01:45:04.041Z,6.77
2019-03-21T01:46:04.023Z,6.77
2019-03-21T01:47:04.064Z,6.72
2019-03-21T01:48:03.966Z,6.76
2019-03-21T01:49:03.971Z,6.83
2019-03-21T01:50:03.895Z,6.68
2019-03-21T01:51:03.872Z,6.72
2019-03-21T01:52:03.902Z,6.71
2019-03-21T01:53:03.809Z,6.71
2019-03-21T01:54:03.791Z,6.72
2019-03-21T01:55:03.751Z,6.73
2019-03-21T01:56:03.720Z,6.87
2019-03-21T01:57:03.700Z,6.76
2019-03-21T01:58:03.722Z,6.73
2019-03-21T01:59:03.630Z,6.72
2019-03-21T02:00:03.631Z,6.71
2019-03-21T02:01:03.571Z,6.77
2019-03-21T02:02:03.552Z,6.63
2019-03-21T02:03:03.523Z,6.58
2019-03-21T02:04:03.551Z,6.62
2019-03-21T02:05:03.471Z,6.59
2019-03-21T02:06:03.461Z,6.63
2019-03-21T02:07:03.404Z,6.56
2019-03-21T02:08:03.471Z,6.58
2019-03-21T02:09:03.340Z,6.46
2019-03-21T02:10:03.382Z,6.47
2019-03-21T02:11:03.289Z,6.43
2019-03-21T02:12:03.295Z,6.36
2019-03-21T02:13:03.304Z,6.33
2019-03-21T02:14:03.211Z,6.36
2019-03-21T02:15:03.212Z,6.30
2019-03-21T02:16:03.144Z,6.29
2019-03-21T02:17:04.142Z,6.21
2019-03-21T02:18:03.083Z,6.19
2019-03-21T02:19:03.053Z,6.10
2019-03-21T02:20:03.033Z,6.11
2019-03-21T02:21:03.049Z,6.09
2019-03-21T02:22:03.060Z,6.10
2019-03-21T02:23:02.942Z,6.07
2019-03-21T02:24:02.904Z,6.11
2019-03-21T02:25:02.889Z,6.06
2019-03-21T02:26:02.872Z,6.06
2019-03-21T02:27:02.821Z,6.07
2019-03-21T02:28:02.884Z,6.10
2019-03-21T02:29:02.780Z,6.21
2019-03-21T02:30:02.746Z,6.18
2019-03-21T02:31:02.809Z,6.21
2019-03-21T02:32:02.682Z,6.13
2019-03-21T02:33:02.714Z,6.18
2019-03-21T02:34:02.613Z,6.18
2019-03-21T02:35:02.586Z,6.09
2019-03-21T02:36:02.567Z,6.10
2019-03-21T02:37:02.630Z,6.10
2019-03-21T02:38:09.849Z,6.11
2019-03-21T02:40:06.505Z,6.11
2019-03-21T02:41:06.463Z,6.06
2019-03-21T02:43:10.471Z,6.04
2019-03-21T02:44:10.359Z,6.06
2019-03-21T02:46:03.302Z,6.10
2019-03-21T02:47:03.220Z,5.89
2019-03-21T02:49:07.239Z,5.92
2019-03-21T02:50:07.132Z,5.91
2019-03-21T02:52:11.142Z,6.04
2019-03-21T02:53:11.140Z,5.95
2019-03-21T02:55:15.055Z,6.00
2019-03-21T02:56:14.952Z,5.91
2019-03-21T02:58:18.961Z,5.78
2019-03-21T02:59:18.862Z,5.85
2019-03-21T03:01:22.870Z,5.75
2019-03-21T03:02:22.771Z,5.77
2019-03-21T03:04:26.784Z,5.89
2019-03-21T03:05:26.703Z,5.85
2019-03-21T03:07:30.699Z,5.88
2019-03-21T03:08:30.672Z,5.82
2019-03-21T03:10:34.627Z,5.91
2019-03-21T03:11:34.506Z,5.93
2019-03-21T03:13:38.513Z,5.85
2019-03-21T03:14:38.414Z,5.91
2019-03-21T03:16:31.364Z,5.88
2019-03-21T03:17:31.274Z,5.81
2019-03-21T03:19:35.238Z,5.81
2019-03-21T03:20:35.171Z,5.81
2019-03-21T03:22:39.199Z,5.78
2019-03-21T03:23:39.081Z,5.75
2019-03-21T03:25:43.047Z,5.83
2019-03-21T03:26:43.068Z,5.77
2019-03-21T03:28:47.001Z,5.71
2019-03-21T03:29:46.902Z,5.75
2019-03-21T03:31:50.914Z,5.73
2019-03-21T03:32:50.821Z,5.73
2019-03-21T03:34:54.944Z,5.77
2019-03-21T03:35:54.869Z,5.77
2019-03-21T03:37:58.831Z,5.70
2019-03-21T03:38:58.733Z,5.70
2019-03-21T03:41:02.761Z,5.60
2019-03-21T03:42:02.714Z,5.53
2019-03-21T03:44:06.666Z,5.49
2019-03-21T03:45:06.563Z,5.52
2019-03-21T03:47:10.573Z,5.38
2019-03-21T03:48:10.461Z,5.45
2019-03-21T03:50:14.471Z,5.43
2019-03-21T03:51:14.372Z,5.48
2019-03-21T03:53:18.320Z,5.49
2019-03-21T03:54:18.354Z,5.40
2019-03-21T03:56:11.264Z,5.32
2019-03-21T03:57:11.145Z,5.40
2019-03-21T03:59:15.140Z,5.35
2019-03-21T04:00:15.041Z,5.37
2019-03-21T04:02:19.075Z,5.52
2019-03-21T04:03:18.975Z,5.52
2019-03-21T04:04:18.931Z,5.45
2019-03-21T04:05:18.901Z,5.50
2019-03-21T04:06:18.958Z,5.48
2019-03-21T04:07:18.833Z,5.48
2019-03-21T04:08:18.851Z,5.53
2019-03-21T04:09:18.769Z,5.52
2019-03-21T04:10:18.739Z,5.53
2019-03-21T04:11:18.760Z,5.55
2019-03-21T04:12:18.708Z,5.52
2019-03-21T04:13:18.718Z,5.60
2019-03-21T04:14:18.634Z,5.56
2019-03-21T04:15:18.591Z,5.60
2019-03-21T04:16:18.575Z,5.64
2019-03-21T04:17:18.605Z,5.60
2019-03-21T04:18:18.516Z,5.57
2019-03-21T04:19:18.513Z,5.64
2019-03-21T04:20:18.450Z,5.60
2019-03-21T04:21:18.430Z,5.55
2019-03-21T04:22:18.393Z,5.55
2019-03-21T04:23:18.433Z,5.52
2019-03-21T04:24:18.333Z,5.60
2019-03-21T04:25:18.341Z,5.48
2019-03-21T04:26:18.278Z,5.57
2019-03-21T04:27:18.350Z,5.46
2019-03-21T04:28:18.224Z,5.48
2019-03-21T04:29:18.260Z,5.52
2019-03-21T04:30:18.151Z,5.50
2019-03-21T04:31:18.172Z,5.43
2019-03-21T04:32:18.208Z,5.37
2019-03-21T04:33:18.072Z,5.34
2019-03-21T04:34:18.090Z,5.35
2019-03-21T04:35:18.032Z,5.37
2019-03-21T04:36:18.005Z,5.45
2019-03-21T04:37:17.952Z,5.37
2019-03-21T04:38:18.022Z,5.48
2019-03-21T04:39:17.881Z,5.38
2019-03-21T04:40:17.921Z,5.32
2019-03-21T04:41:17.819Z,5.38
2019-03-21T04:42:17.831Z,5.43
2019-03-21T04:43:17.775Z,5.46
2019-03-21T04:44:17.740Z,5.48
2019-03-21T04:45:17.764Z,5.40
2019-03-21T04:46:17.671Z,5.35
2019-03-21T04:47:17.662Z,5.35
2019-03-21T04:48:17.631Z,5.32
2019-03-21T04:49:17.593Z,5.43
2019-03-21T04:50:17.582Z,5.34
2019-03-21T04:51:17.535Z,5.37
2019-03-21T04:52:17.589Z,5.38
2019-03-21T04:53:17.461Z,5.41
2019-03-21T04:54:17.443Z,5.45
2019-03-21T04:55:17.411Z,5.45
2019-03-21T04:56:17.412Z,5.49
2019-03-21T04:57:17.354Z,5.34
2019-03-21T04:58:17.421Z,5.37
2019-03-21T04:59:17.290Z,5.38
2019-03-21T05:00:17.263Z,5.34
2019-03-21T05:01:17.343Z,5.38
2019-03-21T05:02:17.225Z,5.34
2019-03-21T05:03:17.253Z,5.37
2019-03-21T05:04:17.164Z,5.50
2019-03-21T05:05:17.110Z,5.37
2019-03-21T05:06:17.072Z,5.45
2019-03-21T05:07:17.174Z,5.32
2019-03-21T05:08:17.029Z,5.37
2019-03-21T05:09:17.094Z,5.34
2019-03-21T05:10:16.961Z,5.35
2019-03-21T05:11:16.933Z,5.38
2019-03-21T05:12:17.001Z,5.40
2019-03-21T05:13:16.887Z,5.38
2019-03-21T05:14:16.916Z,5.25
2019-03-21T05:15:16.812Z,5.30
2019-03-21T05:16:16.781Z,5.32
2019-03-21T05:17:16.750Z,5.27
2019-03-21T05:18:16.834Z,5.27
2019-03-21T05:19:16.693Z,5.35
2019-03-21T05:20:16.740Z,5.22
2019-03-21T05:21:16.632Z,5.19
2019-03-21T05:22:16.602Z,5.23
2019-03-21T05:23:16.569Z,5.22
2019-03-21T05:24:16.561Z,5.22
2019-03-21T05:25:16.510Z,5.28
2019-03-21T05:26:16.571Z,5.17
2019-03-21T05:27:16.452Z,5.14
2019-03-21T05:28:16.480Z,5.16
2019-03-21T05:29:16.390Z,5.16
2019-03-21T05:30:16.390Z,5.10
2019-03-21T05:31:16.336Z,5.16
2019-03-21T05:32:16.405Z,5.02
2019-03-21T05:33:16.314Z,5.14
2019-03-21T05:34:16.247Z,5.10
2019-03-21T05:35:16.321Z,4.99
2019-03-21T05:36:16.181Z,4.95
2019-03-21T05:37:16.234Z,5.13
2019-03-21T05:38:16.130Z,5.04
2019-03-21T05:39:16.142Z,5.12
2019-03-21T05:40:16.074Z,5.12
2019-03-21T05:41:16.052Z,5.19
2019-03-21T05:42:16.012Z,5.16
2019-03-21T05:43:16.062Z,5.17
2019-03-21T05:44:15.941Z,5.16
2019-03-21T05:45:15.911Z,5.20
2019-03-21T05:46:25.990Z,5.16
2019-03-21T05:47:15.855Z,5.10
2019-03-21T05:48:15.892Z,5.12
2019-03-21T05:49:15.824Z,5.13
2019-03-21T05:50:15.784Z,5.14
2019-03-21T05:51:15.844Z,5.12
2019-03-21T05:52:15.711Z,5.12
2019-03-21T05:53:15.722Z,5.13
2019-03-21T05:54:15.640Z,5.22
2019-03-21T05:55:15.621Z,5.20
2019-03-21T05:56:15.587Z,5.14
2019-03-21T05:57:15.644Z,5.17
2019-03-21T05:58:15.539Z,5.17
2019-03-21T05:59:15.551Z,5.25
2019-03-21T06:00:15.462Z,5.17
2019-03-21T06:01:15.446Z,5.19
2019-03-21T06:02:15.413Z,5.17
2019-03-21T06:03:15.482Z,5.16
2019-03-21T06:04:15.351Z,5.17
2019-03-21T06:05:15.395Z,5.13
2019-03-21T06:06:16.984Z,5.14
2019-03-21T06:07:15.253Z,5.19
2019-03-21T06:08:15.302Z,5.19
2019-03-21T06:09:15.203Z,5.14
2019-03-21T06:10:15.212Z,5.22
2019-03-21T06:11:15.131Z,5.32
2019-03-21T06:12:15.114Z,5.23
2019-03-21T06:13:15.072Z,5.19
2019-03-21T06:14:15.132Z,5.23
2019-03-21T06:15:15.022Z,5.25
2019-03-21T06:16:15.048Z,5.34
2019-03-21T06:17:14.954Z,5.35
2019-03-21T06:18:14.951Z,5.35
2019-03-21T06:19:14.902Z,5.27
2019-03-21T06:20:14.981Z,5.31
2019-03-21T06:21:14.842Z,5.32
2019-03-21T06:22:14.885Z,5.35
2019-03-21T06:23:14.781Z,5.34
2019-03-21T06:24:14.751Z,5.40
2019-03-21T06:25:15.983Z,5.38
2019-03-21T06:26:14.729Z,5.37
2019-03-21T06:27:15.094Z,5.40
2019-03-21T06:28:14.630Z,5.41
2019-03-21T06:29:14.716Z,5.41
2019-03-21T06:30:14.560Z,5.45
2019-03-21T06:31:14.624Z,5.49
2019-03-21T06:32:14.517Z,5.41
2019-03-21T06:33:14.543Z,5.53
2019-03-21T06:34:14.555Z,5.45
2019-03-21T06:35:14.410Z,5.46
2019-03-21T06:36:14.466Z,5.52
2019-03-21T06:37:14.351Z,5.53
2019-03-21T06:38:14.365Z,5.52
2019-03-21T06:39:14.301Z,5.53
2019-03-21T06:40:14.369Z,5.43
2019-03-21T06:41:14.241Z,5.55
2019-03-21T06:42:14.290Z,5.57
2019-03-21T06:43:14.179Z,5.64
2019-03-21T06:44:14.191Z,5.67
2019-03-21T06:45:14.200Z,5.66
2019-03-21T06:46:14.092Z,5.77
2019-03-21T06:47:14.110Z,5.73
2019-03-21T06:48:14.035Z,5.71
2019-03-21T06:49:14.019Z,5.83
2019-03-21T06:50:13.970Z,5.75
2019-03-21T06:51:13.959Z,5.82
2019-03-21T06:52:13.942Z,5.91
2019-03-21T06:53:13.889Z,5.91
2019-03-21T06:54:13.950Z,5.93
2019-03-21T06:55:13.822Z,5.96
2019-03-21T06:56:13.791Z,6.03
2019-03-21T06:57:13.774Z,5.98
2019-03-21T06:58:13.773Z,5.95
2019-03-21T06:59:13.702Z,6.01
2019-03-21T07:00:13.782Z,6.03
2019-03-21T07:01:13.646Z,6.01
2019-03-21T07:02:13.633Z,6.13
2019-03-21T07:03:16.205Z,6.13
2019-03-21T07:04:13.563Z,6.11
2019-03-21T07:05:13.619Z,6.09
2019-03-21T07:06:13.509Z,6.18
2019-03-21T07:07:13.461Z,6.21
2019-03-21T07:08:13.439Z,6.26
2019-03-21T07:09:13.431Z,6.28
2019-03-21T07:10:13.380Z,6.29
2019-03-21T07:11:13.442Z,6.29
2019-03-21T07:12:13.323Z,6.30
2019-03-21T07:13:13.294Z,6.29
2019-03-21T07:14:13.368Z,6.32
2019-03-21T07:15:13.231Z,6.36
2019-03-21T07:16:13.272Z,6.41
2019-03-21T07:17:13.168Z,6.38
2019-03-21T07:18:13.182Z,6.50
2019-03-21T07:19:13.123Z,6.50
2019-03-21T07:20:13.194Z,6.51
2019-03-21T07:21:13.060Z,6.61
2019-03-21T07:22:13.100Z,6.56
2019-03-21T07:23:12.993Z,6.69
2019-03-21T07:24:12.969Z,6.63
2019-03-21T07:25:13.010Z,6.68
2019-03-21T07:26:12.955Z,6.77
2019-03-21T07:27:12.879Z,6.79
2019-03-21T07:28:12.986Z,6.72
2019-03-21T07:29:12.823Z,6.71
2019-03-21T07:30:12.792Z,6.77
2019-03-21T07:31:12.867Z,6.84
2019-03-21T07:32:12.730Z,6.86
2019-03-21T07:33:12.765Z,6.81
2019-03-21T07:34:12.682Z,6.94
2019-03-21T07:35:12.651Z,6.95
2019-03-21T07:36:12.624Z,7.02
2019-03-21T07:37:12.703Z,6.98
2019-03-21T07:38:12.566Z,7.08
2019-03-21T07:39:12.591Z,7.08
2019-03-21T07:40:12.504Z,7.13
2019-03-21T07:41:12.472Z,7.19
2019-03-21T07:42:12.524Z,7.24
2019-03-21T07:43:12.410Z,7.35
2019-03-21T07:44:12.422Z,7.42
2019-03-21T07:45:12.351Z,7.40
2019-03-21T07:46:12.333Z,7.55
2019-03-21T07:47:13.424Z,7.58
2019-03-21T07:48:12.341Z,7.60
2019-03-21T07:49:12.242Z,7.69
2019-03-21T07:50:12.249Z,7.67
2019-03-21T07:51:12.182Z,7.72
2019-03-21T07:52:12.151Z,7.67
2019-03-21T07:53:12.171Z,7.78
2019-03-21T07:54:12.100Z,7.82
2019-03-21T07:55:12.185Z,7.90
2019-03-21T07:56:12.041Z,7.89
2019-03-21T07:57:12.010Z,8.02
2019-03-21T07:58:11.994Z,8.03
2019-03-21T07:59:12.005Z,8.14
2019-03-21T08:00:11.923Z,8.12
2019-03-21T08:01:11.920Z,8.12
2019-03-21T08:02:11.869Z,8.04
2019-03-21T08:03:11.843Z,8.11
2019-03-21T08:04:11.833Z,8.15
2019-03-21T08:05:11.793Z,8.20
2019-03-21T08:06:11.847Z,8.29
2019-03-21T08:07:11.734Z,8.28
2019-03-21T08:08:11.754Z,8.37
2019-03-21T08:09:11.670Z,8.40
2019-03-21T08:10:11.673Z,8.50
2019-03-21T08:11:11.630Z,8.51
2019-03-21T08:12:11.682Z,8.54
2019-03-21T08:13:11.552Z,8.63
2019-03-21T08:14:11.539Z,8.71
2019-03-21T08:15:11.501Z,8.68
2019-03-21T08:16:11.510Z,8.75
2019-03-21T08:17:11.439Z,8.81
2019-03-21T08:18:11.511Z,8.84
2019-03-21T08:19:11.392Z,8.94
2019-03-21T08:20:11.360Z,8.94
2019-03-21T08:21:11.445Z,9.02
2019-03-21T08:22:11.323Z,9.06
2019-03-21T08:23:11.343Z,9.15
2019-03-21T08:24:11.256Z,9.15
2019-03-21T08:25:11.220Z,9.24
2019-03-21T08:26:11.192Z,9.25
2019-03-21T08:27:11.261Z,9.32
2019-03-21T08:28:11.143Z,9.45
2019-03-21T08:29:11.171Z,9.35
2019-03-21T08:30:11.091Z,9.56
2019-03-21T08:31:11.059Z,9.52
2019-03-21T08:32:11.079Z,9.66
2019-03-21T08:33:10.990Z,9.63
2019-03-21T08:34:11.028Z,9.61
2019-03-21T08:35:10.945Z,9.66
2019-03-21T08:36:10.923Z,9.70
2019-03-21T08:37:10.891Z,9.75
2019-03-21T08:38:10.920Z,9.78
2019-03-21T08:39:18.140Z,9.88
2019-03-21T08:41:14.822Z,9.88
2019-03-21T08:42:14.782Z,9.85
2019-03-21T08:44:18.794Z,10.01
2019-03-21T08:45:18.718Z,10.03
2019-03-21T08:47:22.642Z,10.03
2019-03-21T08:48:22.606Z,10.09
2019-03-21T08:50:26.618Z,10.25
2019-03-21T08:51:26.501Z,10.37
2019-03-21T08:53:30.467Z,10.51
2019-03-21T08:54:30.426Z,10.47
2019-03-21T08:56:24.392Z,10.56
2019-03-21T08:57:23.273Z,10.68
2019-03-21T08:59:27.270Z,10.80
2019-03-21T09:00:33.973Z,10.86
2019-03-21T09:02:31.181Z,10.98
2019-03-21T09:03:31.093Z,11.01
2019-03-21T09:05:35.201Z,11.25
2019-03-21T09:06:35.101Z,11.38
2019-03-21T09:08:39.113Z,11.44
2019-03-21T09:09:39.071Z,11.50
2019-03-21T09:11:43.009Z,11.61
2019-03-21T09:12:42.932Z,11.68
2019-03-21T09:14:46.871Z,11.74
2019-03-21T09:15:46.831Z,11.75
2019-03-21T09:17:50.843Z,12.04
2019-03-21T09:18:50.745Z,12.11
2019-03-21T09:20:55.882Z,12.42
2019-03-21T09:21:54.762Z,12.54
2019-03-21T09:23:58.761Z,13.06
2019-03-21T09:24:58.681Z,13.63
2019-03-21T09:26:51.615Z,14.95
2019-03-21T09:28:01.961Z,15.67
2019-03-21T09:29:55.621Z,16.59
2019-03-21T09:30:56.672Z,17.03
2019-03-21T09:33:00.652Z,18.15
2019-03-21T09:33:59.552Z,18.50
2019-03-21T09:36:04.482Z,19.20
2019-03-21T09:37:04.440Z,19.68
2019-03-21T09:39:09.311Z,20.38
2019-03-21T09:40:09.211Z,20.83
2019-03-21T09:42:14.080Z,21.26
2019-03-21T09:43:14.043Z,21.46
2019-03-21T09:45:18.977Z,21.83
2019-03-21T09:46:18.870Z,22.01
2019-03-21T09:48:23.791Z,22.19
2019-03-21T09:49:23.701Z,22.32
2019-03-21T09:51:31.096Z,22.64
2019-03-21T09:52:28.554Z,22.69
2019-03-21T09:54:32.674Z,23.08
2019-03-21T09:55:32.551Z,23.22
2019-03-21T09:57:37.471Z,23.52
2019-03-21T09:58:37.382Z,23.65
2019-03-21T10:00:41.482Z,24.10
2019-03-21T10:01:41.390Z,24.44
2019-03-21T10:03:46.271Z,24.87
2019-03-21T10:04:46.230Z,24.92
2019-03-21T10:06:39.274Z,25.02
2019-03-21T10:07:39.181Z,25.12
2019-03-21T10:09:45.124Z,25.31
2019-03-21T10:10:44.013Z,25.35
2019-03-21T10:12:48.934Z,25.15
2019-03-21T10:13:48.851Z,25.06
2019-03-21T10:15:53.759Z,25.38
2019-03-21T10:16:53.683Z,25.27
2019-03-21T10:18:57.771Z,24.76
2019-03-21T10:19:57.703Z,24.57
2019-03-21T10:22:02.630Z,24.24
2019-03-21T10:23:02.533Z,24.42
2019-03-21T10:25:06.651Z,24.83
2019-03-21T10:26:06.612Z,24.60
2019-03-21T10:28:10.660Z,24.37
2019-03-21T10:29:10.570Z,24.32
2019-03-21T10:30:10.632Z,24.60
2019-03-21T10:31:10.533Z,24.90
2019-03-21T10:32:14.574Z,25.12
2019-03-21T10:33:10.501Z,25.24
2019-03-21T10:34:10.562Z,25.42
2019-03-21T10:35:10.449Z,25.59
2019-03-21T10:36:10.570Z,25.79
2019-03-21T10:37:10.434Z,25.93
2019-03-21T10:38:10.482Z,25.94
2019-03-21T10:39:10.391Z,26.28
2019-03-21T10:40:10.504Z,26.22
2019-03-21T10:41:10.350Z,26.27
2019-03-21T10:42:10.409Z,26.27
2019-03-21T10:43:10.705Z,26.32
2019-03-21T10:44:10.420Z,26.35
2019-03-21T10:45:10.281Z,26.27
2019-03-21T10:46:10.331Z,26.42
2019-03-21T10:47:10.243Z,26.54
2019-03-21T10:48:10.221Z,26.40
2019-03-21T10:49:10.254Z,26.27
2019-03-21T10:50:10.163Z,25.99
2019-03-21T10:51:10.273Z,26.02
2019-03-21T10:52:10.162Z,26.11
2019-03-21T10:53:10.181Z,25.98
2019-03-21T10:54:10.121Z,25.75
2019-03-21T10:55:10.191Z,25.84
2019-03-21T10:56:10.080Z,26.02
2019-03-21T10:57:10.113Z,25.72
2019-03-21T10:58:10.052Z,25.57
2019-03-21T10:59:10.030Z,25.54
2019-03-21T11:00:10.011Z,25.38
2019-03-21T11:01:10.031Z,25.02
2019-03-21T11:02:09.976Z,24.75
2019-03-21T11:03:10.047Z,24.13
2019-03-21T11:04:09.942Z,24.14
2019-03-21T11:05:09.921Z,24.23
2019-03-21T11:06:09.966Z,24.41
2019-03-21T11:07:09.907Z,24.60
2019-03-21T11:08:09.988Z,24.87
2019-03-21T11:09:09.854Z,25.24
2019-03-21T11:10:09.847Z,25.57
2019-03-21T11:11:09.826Z,25.99
2019-03-21T11:12:09.901Z,26.42
2019-03-21T11:13:09.791Z,26.79
2019-03-21T11:14:09.815Z,26.46
2019-03-21T11:15:09.754Z,26.02
2019-03-21T11:16:09.741Z,25.90
2019-03-21T11:17:09.732Z,25.75
2019-03-21T11:18:09.710Z,25.74
2019-03-21T11:19:09.756Z,25.79
2019-03-21T11:20:09.671Z,25.94
2019-03-21T11:21:09.640Z,26.28
2019-03-21T11:22:09.625Z,26.39
2019-03-21T11:23:09.673Z,26.08
2019-03-21T11:24:09.602Z,25.82
2019-03-21T11:25:09.693Z,25.56
2019-03-21T11:26:09.562Z,25.52
2019-03-21T11:27:09.539Z,25.39
2019-03-21T11:28:09.614Z,25.59
2019-03-21T11:29:09.513Z,25.80
2019-03-21T11:30:16.147Z,25.74
2019-03-21T11:31:09.470Z,25.75
2019-03-21T11:32:09.472Z,25.82
2019-03-21T11:33:09.443Z,25.83
2019-03-21T11:34:09.444Z,25.80
2019-03-21T11:35:09.416Z,25.93
2019-03-21T11:36:09.461Z,25.99
2019-03-21T11:37:09.383Z,26.28
2019-03-21T11:38:09.366Z,26.35
2019-03-21T11:39:09.379Z,26.44
2019-03-21T11:40:09.320Z,26.37
2019-03-21T11:41:09.398Z,26.21
2019-03-21T11:42:09.317Z,26.05
2019-03-21T11:43:09.308Z,26.08
2019-03-21T11:44:09.262Z,26.09
2019-03-21T11:45:09.334Z,25.84
2019-03-21T11:46:09.243Z,25.43
2019-03-21T11:47:09.235Z,25.22
2019-03-21T11:48:09.194Z,25.31
2019-03-21T11:49:09.194Z,25.19
2019-03-21T11:50:09.151Z,25.22
2019-03-21T11:51:09.282Z,25.16
2019-03-21T11:52:17.776Z,25.24
2019-03-21T11:53:09.114Z,25.30
2019-03-21T11:54:09.173Z,25.30
2019-03-21T11:55:09.082Z,25.35
2019-03-21T11:56:09.094Z,25.25
2019-03-21T11:57:09.052Z,24.97
2019-03-21T11:58:09.258Z,24.75
2019-03-21T11:59:13.558Z,24.45
2019-03-21T12:00:08.991Z,24.64
2019-03-21T12:01:08.984Z,24.61
2019-03-21T12:02:09.037Z,24.76
2019-03-21T12:03:08.943Z,24.69
2019-03-21T12:04:09.041Z,24.50
2019-03-21T12:05:08.913Z,24.52
2019-03-21T12:06:09.061Z,24.44
2019-03-21T12:07:08.871Z,24.45
2019-03-21T12:08:09.070Z,24.50
2019-03-21T12:09:08.848Z,24.76
2019-03-21T12:10:08.902Z,24.85
2019-03-21T12:11:08.812Z,24.88
2019-03-21T12:12:08.900Z,24.95
2019-03-21T12:13:08.784Z,24.98
2019-03-21T12:14:08.813Z,24.76
2019-03-21T12:15:08.740Z,24.47
2019-03-21T12:16:08.720Z,24.14
2019-03-21T12:17:08.710Z,24.20
2019-03-21T12:18:08.745Z,24.32
2019-03-21T12:19:08.681Z,24.42
2019-03-21T12:20:08.750Z,24.44
2019-03-21T12:21:08.644Z,24.56
2019-03-21T12:22:08.631Z,24.76
2019-03-21T12:23:08.673Z,24.59
2019-03-21T12:24:08.601Z,24.17
2019-03-21T12:25:08.684Z,24.05
2019-03-21T12:26:08.561Z,23.92
2019-03-21T12:27:08.539Z,23.86
2019-03-21T12:28:08.520Z,23.82
2019-03-21T12:29:08.599Z,23.85
2019-03-21T12:30:08.501Z,24.01
2019-03-21T12:31:08.520Z,24.13
2019-03-21T12:32:08.468Z,24.26
2019-03-21T12:33:08.452Z,24.39
2019-03-21T12:34:09.559Z,24.59
2019-03-21T12:35:08.414Z,24.69
2019-03-21T12:36:08.451Z,24.54
2019-03-21T12:37:08.369Z,24.44
2019-03-21T12:38:08.369Z,24.63
2019-03-21T12:39:08.484Z,24.77
2019-03-21T12:40:08.341Z,24.79
2019-03-21T12:41:08.385Z,24.73
2019-03-21T12:42:08.304Z,24.35
2019-03-21T12:43:08.400Z,24.08
2019-03-21T12:44:08.262Z,24.08
2019-03-21T12:45:08.312Z,24.20
2019-03-21T12:46:08.244Z,24.26
2019-03-21T12:47:08.320Z,24.44
2019-03-21T12:48:08.199Z,24.24
2019-03-21T12:49:08.181Z,23.97
2019-03-21T12:50:08.162Z,23.87
2019-03-21T12:51:08.251Z,24.00
2019-03-21T12:52:08.133Z,23.95
2019-03-21T12:53:08.260Z,24.04
2019-03-21T12:54:08.101Z,24.20
2019-03-21T12:55:08.080Z,24.12
2019-03-21T12:56:08.181Z,24.12
2019-03-21T12:57:08.050Z,24.22
2019-03-21T12:58:08.092Z,24.31
2019-03-21T12:59:08.011Z,24.32
2019-03-21T13:00:07.992Z,24.17
2019-03-21T13:01:07.981Z,24.13
2019-03-21T13:02:08.024Z,24.10
2019-03-21T13:03:07.951Z,23.94
2019-03-21T13:04:08.031Z,23.98
2019-03-21T13:05:07.910Z,23.94
2019-03-21T13:06:07.900Z,24.10
2019-03-21T13:07:07.901Z,24.24
2019-03-21T13:08:07.962Z,24.50
2019-03-21T13:09:07.845Z,24.60
2019-03-21T13:10:08.012Z,24.79
2019-03-21T13:11:07.814Z,24.85
2019-03-21T13:12:07.891Z,24.95
2019-03-21T13:13:07.780Z,25.01
2019-03-21T13:14:07.902Z,25.07
2019-03-21T13:15:07.743Z,25.00
2019-03-21T13:16:07.820Z,24.85
2019-03-21T13:17:07.722Z,24.67
2019-03-21T13:18:07.831Z,24.59
2019-03-21T13:19:07.681Z,24.45
2019-03-21T13:20:07.841Z,24.61
2019-03-21T13:21:07.651Z,24.67
2019-03-21T13:22:07.759Z,24.57
2019-03-21T13:23:07.623Z,24.47
2019-03-21T13:24:07.771Z,24.38
2019-03-21T13:25:07.583Z,24.53
2019-03-21T13:26:07.686Z,24.68
2019-03-21T13:27:07.551Z,24.69
2019-03-21T13:28:07.530Z,24.76
2019-03-21T13:29:07.519Z,24.85
2019-03-21T13:30:07.616Z,24.85
2019-03-21T13:31:07.504Z,24.97
2019-03-21T13:32:07.621Z,25.02
2019-03-21T13:33:07.450Z,25.00
2019-03-21T13:34:07.444Z,25.01
2019-03-21T13:35:07.539Z,24.68
2019-03-21T13:36:07.411Z,24.53
2019-03-21T13:37:07.551Z,24.49
2019-03-21T13:38:07.384Z,24.44
2019-03-21T13:39:07.365Z,24.57
2019-03-21T13:40:07.339Z,24.73
2019-03-21T13:41:07.480Z,24.90
2019-03-21T13:42:07.324Z,25.00
2019-03-21T13:43:07.393Z,24.92
2019-03-21T13:44:07.280Z,24.95
2019-03-21T13:45:07.261Z,25.01
2019-03-21T13:46:07.411Z,24.88
2019-03-21T13:47:07.233Z,24.82
2019-03-21T13:48:07.349Z,24.92
2019-03-21T13:49:07.194Z,24.91
2019-03-21T13:50:07.181Z,24.95
2019-03-21T13:51:07.164Z,24.98
2019-03-21T13:52:07.350Z,24.95
2019-03-21T13:53:18.175Z,25.02
2019-03-21T13:54:08.749Z,25.02
2019-03-21T13:55:07.271Z,24.90
2019-03-21T13:56:07.181Z,24.68
2019-03-21T13:57:07.064Z,24.60
2019-03-21T13:58:07.190Z,24.47
2019-03-21T13:59:07.039Z,24.20
2019-03-21T14:00:07.099Z,23.71
2019-03-21T14:01:07.014Z,23.52
2019-03-21T14:02:07.022Z,23.47
2019-03-21T14:03:06.970Z,23.47
2019-03-21T14:04:07.030Z,23.50
2019-03-21T14:05:06.940Z,23.72
2019-03-21T14:06:07.039Z,23.85
2019-03-21T14:07:06.954Z,24.04
2019-03-21T14:08:06.889Z,24.32
2019-03-21T14:09:06.960Z,24.29
2019-03-21T14:10:06.849Z,24.16
2019-03-21T14:11:06.870Z,24.10
2019-03-21T14:12:06.832Z,24.08
2019-03-21T14:13:06.820Z,24.12
2019-03-21T14:14:06.896Z,24.07
2019-03-21T14:15:06.780Z,23.89